Time;durP1;ratioP1;P1;durP2;ratioP2;P2;SDS_P1;SDS_P2;PMS_P1;PMS_P2;Temp;Humidity;BMP_temperature;BMP_pressure;BME280_temperature;BME280_humidity;BME280_pressure;Samples;Min_cycle;Max_cycle;Signal;HPM_P1;HPM_P2
2023/03/05 00:00:13;;;;;;;7.47;2.88;;;;;;;0.33;48.74;95744.97;4962590;28;20461;-71
2023/03/05 00:02:38;;;;;;;7.65;3.00;;;;;;;0.37;48.06;95736.88;4961532;28;20164;-71
2023/03/05 00:05:04;;;;;;;9.02;3.22;;;;;;;0.40;48.12;95732.25;4962582;28;20503;-71
2023/03/05 00:07:29;;;;;;;10.93;3.95;;;;;;;0.54;47.61;95727.75;4959796;28;20644;-70
2023/03/05 00:09:58;;;;;;;9.52;3.53;;;;;;;0.29;48.24;95730.41;4943917;28;20111;-70
2023/03/05 00:12:24;;;;;;;8.95;3.70;;;;;;;0.44;48.38;95732.84;4960283;28;20520;-71
2023/03/05 00:14:49;;;;;;;8.45;3.90;;;;;;;0.20;48.73;95737.13;4961358;28;20102;-70
2023/03/05 00:17:14;;;;;;;10.30;3.53;;;;;;;0.28;49.12;95733.97;4961526;28;20518;-70
2023/03/05 00:19:40;;;;;;;10.30;3.92;;;;;;;0.36;49.07;95735.19;4961607;28;20116;-71
2023/03/05 00:22:05;;;;;;;7.90;3.60;;;;;;;0.54;47.89;95730.38;4960956;28;20121;-71
2023/03/05 00:24:30;;;;;;;8.27;3.80;;;;;;;0.24;48.44;95732.50;4962004;28;20087;-70
2023/03/05 00:26:56;;;;;;;7.35;3.50;;;;;;;-0.12;48.80;95719.34;4961305;28;20553;-71
2023/03/05 00:29:21;;;;;;;7.00;2.92;;;;;;;-0.72;50.52;95730.38;4961531;28;20077;-70
2023/03/05 00:31:47;;;;;;;10.52;3.95;;;;;;;-0.61;50.72;95728.81;4961571;28;20077;-71
2023/03/05 00:34:14;;;;;;;6.57;3.10;;;;;;;-0.72;51.89;95733.00;4959089;28;20097;-70
2023/03/05 00:36:44;;;;;;;7.07;3.15;;;;;;;-0.68;51.54;95733.63;4961812;28;20085;-70
2023/03/05 00:39:10;;;;;;;5.95;3.08;;;;;;;-1.01;52.50;95737.53;4961286;28;20183;-70
2023/03/05 00:41:35;;;;;;;8.02;3.22;;;;;;;-1.49;53.74;95733.69;4961099;28;20112;-70
2023/03/05 00:44:03;;;;;;;7.18;2.13;;;;;;;-1.84;54.55;95735.00;4961705;28;20513;-70
2023/03/05 00:46:29;;;;;;;8.73;3.13;;;;;;;-1.49;54.09;95734.50;4961252;28;20241;-70
2023/03/05 00:48:54;;;;;;;3.35;1.95;;;;;;;-1.77;54.34;95725.00;4961212;28;20086;-70
2023/03/05 00:51:20;;;;;;;4.40;2.42;;;;;;;-2.37;56.14;95738.28;4960796;28;20103;-70
2023/03/05 00:53:45;;;;;;;5.60;2.80;;;;;;;-1.99;56.48;95724.63;4960713;28;20586;-70
2023/03/05 00:56:11;;;;;;;2.70;1.88;;;;;;;-2.17;56.84;95723.97;4961272;28;20071;-70
2023/03/05 00:58:36;;;;;;;6.03;2.90;;;;;;;-2.12;58.24;95724.53;4960042;28;20097;-71
2023/03/05 01:01:03;;;;;;;8.30;3.33;;;;;;;-2.61;57.77;95720.59;4959569;28;20125;-70
2023/03/05 01:03:30;;;;;;;10.38;2.70;;;;;;;-1.65;57.57;95712.94;4959352;28;20231;-70
2023/03/05 01:05:55;;;;;;;8.63;2.80;;;;;;;-1.24;54.28;95706.78;4960289;28;20152;-71
2023/03/05 01:08:20;;;;;;;3.95;2.25;;;;;;;-1.18;53.31;95717.75;4960938;28;20603;-70
2023/03/05 01:10:46;;;;;;;5.88;2.70;;;;;;;-0.78;53.69;95709.88;4960098;28;20484;-70
2023/03/05 01:13:11;;;;;;;9.88;2.88;;;;;;;-0.87;51.59;95695.66;4960463;28;20470;-70
2023/03/05 01:15:37;;;;;;;9.57;2.83;;;;;;;-0.47;51.04;95694.69;4960438;28;20133;-71
2023/03/05 01:18:03;;;;;;;6.65;2.40;;;;;;;-0.40;51.42;95699.50;4960484;28;20520;-70
2023/03/05 01:20:29;;;;;;;6.90;3.00;;;;;;;-0.68;49.69;95704.03;4960570;28;20554;-71
2023/03/05 01:22:55;;;;;;;6.22;2.65;;;;;;;-0.24;52.25;95694.84;4959961;28;20128;-70
2023/03/05 01:25:20;;;;;;;5.88;2.20;;;;;;;-0.62;49.15;95696.59;4959828;28;20083;-70
2023/03/05 01:27:46;;;;;;;4.18;2.42;;;;;;;-0.19;52.81;95687.50;4959142;28;20246;-70
2023/03/05 01:30:12;;;;;;;4.88;1.77;;;;;;;-0.18;49.21;95694.44;4959858;28;20414;-70
2023/03/05 01:32:37;;;;;;;4.15;1.90;;;;;;;-0.29;48.71;95683.88;4948632;28;20519;-70
2023/03/05 01:35:04;;;;;;;5.00;2.33;;;;;;;-2.25;59.76;95695.78;4959750;28;20100;-70
2023/03/05 01:37:30;;;;;;;5.93;1.85;;;;;;;-1.21;51.79;95684.84;4959656;28;20734;-71
2023/03/05 01:39:55;;;;;;;4.85;2.30;;;;;;;-0.36;53.30;95672.16;4960356;28;20078;-70
2023/03/05 01:42:21;;;;;;;3.60;1.88;;;;;;;-0.62;50.70;95666.97;4959633;28;20174;-70
2023/03/05 01:45:11;;;;;;;5.15;2.22;;;;;;;-0.40;48.80;95663.72;4959369;28;20086;-70
2023/03/05 01:47:37;;;;;;;4.65;1.90;;;;;;;-0.36;49.45;95670.41;4958630;28;20504;-70
2023/03/05 01:50:05;;;;;;;6.03;2.30;;;;;;;-0.31;50.21;95668.28;4959318;28;20110;-70
2023/03/05 01:52:30;;;;;;;3.90;1.88;;;;;;;-0.11;48.22;95673.88;4958654;28;20612;-71
2023/03/05 01:55:02;;;;;;;7.63;1.95;;;;;;;-0.83;47.82;95672.75;4958599;28;20165;-71
2023/03/05 01:57:31;;;;;;;5.38;2.15;;;;;;;-1.10;49.48;95666.66;4958093;28;20649;-70
2023/03/05 01:59:59;;;;;;;3.20;1.80;;;;;;;-0.63;48.03;95662.69;4958361;28;20073;-70
2023/03/05 02:02:25;;;;;;;4.00;2.13;;;;;;;-1.55;55.42;95666.19;4959075;28;20099;-70
2023/03/05 02:05:00;;;;;;;3.95;2.00;;;;;;;-1.89;52.38;95662.22;4960169;28;20552;-70
2023/03/05 02:07:25;;;;;;;8.07;2.10;;;;;;;-1.38;53.09;95657.22;4941674;28;20527;-70
2023/03/05 02:09:51;;;;;;;3.70;1.60;;;;;;;-1.83;50.21;95655.78;4959657;28;20092;-70
2023/03/05 02:12:16;;;;;;;7.25;2.10;;;;;;;-2.07;50.57;95647.75;4956141;28;20542;-70
2023/03/05 02:14:43;;;;;;;4.50;1.80;;;;;;;-1.48;49.19;95651.78;4957626;28;20176;-70
2023/03/05 02:17:09;;;;;;;5.80;2.05;;;;;;;-1.74;55.87;95649.94;4958120;28;20329;-70
2023/03/05 02:19:54;;;;;;;4.38;1.80;;;;;;;-1.05;50.65;95636.78;4958030;28;20402;-70
2023/03/05 02:22:21;;;;;;;6.40;1.90;;;;;;;-1.66;49.81;95644.22;4958867;28;20555;-70
2023/03/05 02:24:46;;;;;;;4.40;1.63;;;;;;;-0.21;46.08;95634.44;4959793;28;20072;-70
2023/03/05 02:27:12;;;;;;;2.35;1.60;;;;;;;-2.09;49.83;95640.03;4959527;28;20133;-70
2023/03/05 02:29:39;;;;;;;4.18;1.77;;;;;;;-2.88;54.03;95650.97;4959163;28;20104;-70
2023/03/05 02:32:05;;;;;;;4.25;1.65;;;;;;;-1.95;53.82;95640.88;4957929;28;20167;-70
2023/03/05 02:34:30;;;;;;;3.58;1.40;;;;;;;-0.45;48.32;95632.63;4959006;28;20566;-70
2023/03/05 02:36:56;;;;;;;2.55;1.45;;;;;;;-0.56;50.60;95627.31;4959402;28;20449;-70
2023/03/05 02:39:21;;;;;;;2.05;1.48;;;;;;;0.11;46.41;95617.38;4955858;28;20424;-70
2023/03/05 02:41:47;;;;;;;3.35;1.92;;;;;;;0.42;48.49;95612.47;4959399;28;20177;-70
2023/03/05 02:44:12;;;;;;;1.40;1.30;;;;;;;0.22;43.79;95616.56;4958901;28;20068;-70
2023/03/05 02:46:37;;;;;;;1.38;1.25;;;;;;;0.42;45.67;95614.25;4959107;28;20100;-71
2023/03/05 02:49:03;;;;;;;4.28;1.50;;;;;;;0.54;46.89;95613.31;4958733;28;20080;-71
2023/03/05 02:51:28;;;;;;;2.45;1.65;;;;;;;0.38;44.70;95611.00;4958965;28;20104;-70
2023/03/05 02:53:54;;;;;;;3.10;1.80;;;;;;;0.44;47.02;95600.09;4959199;28;20100;-70
2023/03/05 02:56:19;;;;;;;3.20;1.38;;;;;;;0.26;43.89;95604.91;4961103;28;20076;-70
2023/03/05 02:58:45;;;;;;;2.33;1.63;;;;;;;0.28;47.48;95597.75;4962876;28;20581;-71
2023/03/05 03:01:10;;;;;;;1.92;1.50;;;;;;;0.63;45.81;95600.47;4963065;28;20070;-70
2023/03/05 03:03:36;;;;;;;3.33;1.40;;;;;;;0.19;46.67;95598.47;4961546;28;20109;-70
2023/03/05 03:06:02;;;;;;;3.47;1.58;;;;;;;0.30;44.76;95593.25;4962265;28;20129;-70
2023/03/05 03:08:27;;;;;;;4.10;2.00;;;;;;;0.66;49.75;95595.00;4945281;28;20564;-70
2023/03/05 03:10:55;;;;;;;2.83;1.67;;;;;;;0.82;44.97;95590.25;4962249;28;20568;-70
2023/03/05 03:13:21;;;;;;;4.35;1.40;;;;;;;0.49;43.14;95585.81;4962731;28;20580;-71
2023/03/05 03:15:46;;;;;;;3.65;1.25;;;;;;;0.24;42.84;95588.47;4962623;28;20122;-70
2023/03/05 03:18:12;;;;;;;2.45;1.70;;;;;;;0.39;45.28;95588.28;4962945;28;20097;-71
2023/03/05 03:20:38;;;;;;;2.78;1.83;;;;;;;0.77;48.85;95581.94;4962695;28;20083;-70
2023/03/05 03:23:03;;;;;;;2.17;1.45;;;;;;;0.56;43.91;95576.53;4962443;28;20128;-70
2023/03/05 03:25:28;;;;;;;4.30;1.25;;;;;;;0.70;45.14;95578.09;4962287;28;20073;-70
2023/03/05 03:27:54;;;;;;;2.10;1.40;;;;;;;0.72;44.80;95584.88;4961453;28;20073;-70
2023/03/05 03:30:19;;;;;;;4.70;1.80;;;;;;;0.68;45.79;95572.97;4960569;28;20098;-70
2023/03/05 03:32:46;;;;;;;5.28;1.67;;;;;;;0.91;44.40;95574.78;4963169;28;20121;-71
2023/03/05 03:35:11;;;;;;;1.52;1.33;;;;;;;0.81;43.23;95575.50;4959560;28;20154;-70
2023/03/05 03:37:37;;;;;;;4.13;1.27;;;;;;;1.11;43.55;95574.09;4962336;28;20136;-70
2023/03/05 03:40:04;;;;;;;2.67;1.70;;;;;;;1.07;42.30;95567.41;4960897;28;20599;-70
2023/03/05 03:42:29;;;;;;;3.47;1.20;;;;;;;0.97;41.14;95567.28;4962459;28;20195;-70
2023/03/05 03:44:55;;;;;;;1.55;1.23;;;;;;;0.89;44.36;95563.59;4962597;28;20130;-70
2023/03/05 03:47:20;;;;;;;3.38;1.10;;;;;;;0.75;41.12;95567.28;4962153;28;20109;-71
2023/03/05 03:49:46;;;;;;;1.00;1.00;;;;;;;0.76;41.67;95566.31;4957864;28;20108;-70
2023/03/05 03:52:11;;;;;;;1.60;1.20;;;;;;;0.70;42.44;95560.59;4962040;28;20180;-70
2023/03/05 03:54:39;;;;;;;2.88;1.55;;;;;;;0.76;41.53;95561.06;4961111;28;20089;-70
2023/03/05 03:57:05;;;;;;;2.40;1.40;;;;;;;0.60;41.71;95562.25;4960420;28;20178;-70
2023/03/05 03:59:30;;;;;;;3.70;1.65;;;;;;;0.52;42.53;95562.00;4962180;28;20323;-70
2023/03/05 04:01:56;;;;;;;1.83;1.27;;;;;;;0.54;44.43;95558.31;4960303;28;20115;-70
2023/03/05 04:04:21;;;;;;;3.78;1.50;;;;;;;0.83;42.07;95555.25;4961565;28;20198;-70
2023/03/05 04:06:47;;;;;;;2.92;1.42;;;;;;;0.73;43.15;95554.28;4960690;28;20100;-70
2023/03/05 04:09:12;;;;;;;6.55;1.65;;;;;;;0.50;42.46;95549.00;4961278;28;20411;-70
2023/03/05 04:11:38;;;;;;;3.15;1.65;;;;;;;0.51;43.18;95561.16;4960956;28;20096;-70
2023/03/05 04:14:03;;;;;;;6.25;2.00;;;;;;;0.21;44.37;95552.06;4958812;28;20105;-70
2023/03/05 04:16:29;;;;;;;3.92;1.95;;;;;;;0.33;44.31;95543.28;4961667;28;20077;-70
2023/03/05 04:18:54;;;;;;;8.00;2.13;;;;;;;-0.02;45.82;95540.66;4961354;28;20106;-71
2023/03/05 04:21:20;;;;;;;3.60;1.65;;;;;;;-0.44;47.29;95540.13;4961082;28;20088;-70
2023/03/05 04:23:45;;;;;;;6.32;2.00;;;;;;;-0.39;47.17;95536.34;4961189;28;20123;-70
2023/03/05 04:26:11;;;;;;;6.00;2.10;;;;;;;-0.50;48.14;95543.19;4961554;28;20115;-70
2023/03/05 04:28:37;;;;;;;3.88;2.30;;;;;;;-0.69;49.39;95538.44;4962019;28;20695;-70
2023/03/05 04:31:03;;;;;;;5.68;2.20;;;;;;;-0.57;48.56;95534.13;4961366;28;21019;-70
2023/03/05 04:33:28;;;;;;;6.05;3.08;;;;;;;-0.53;49.32;95535.56;4959146;28;20153;-70
2023/03/05 04:35:54;;;;;;;9.15;3.85;;;;;;;-0.59;49.06;95525.53;4960047;28;20482;-70
2023/03/05 04:38:19;;;;;;;7.70;4.18;;;;;;;-0.87;50.42;95522.28;4959546;28;20091;-70
2023/03/05 04:40:45;;;;;;;10.88;3.80;;;;;;;-1.10;51.67;95533.38;4961567;28;20587;-70
2023/03/05 04:43:10;;;;;;;12.95;4.43;;;;;;;-0.71;51.28;95528.09;4961492;28;20097;-70
2023/03/05 04:45:38;;;;;;;9.55;4.40;;;;;;;-1.12;53.08;95518.78;4960994;28;20104;-70
2023/03/05 04:48:04;;;;;;;8.27;4.55;;;;;;;-0.92;52.27;95522.59;4960729;28;20718;-71
2023/03/05 04:50:29;;;;;;;11.23;5.30;;;;;;;-0.51;51.42;95515.34;4960742;28;20392;-71
2023/03/05 04:52:55;;;;;;;11.25;5.38;;;;;;;-0.60;51.39;95513.41;4960904;28;20494;-70
2023/03/05 04:55:20;;;;;;;9.00;4.90;;;;;;;-0.51;51.15;95515.34;4960597;28;20154;-70
2023/03/05 04:57:45;;;;;;;8.38;4.55;;;;;;;-0.77;51.31;95512.84;4960508;28;20576;-70
2023/03/05 05:00:13;;;;;;;9.35;4.90;;;;;;;-0.88;52.17;95510.16;4961408;28;20085;-70
2023/03/05 05:02:40;;;;;;;8.70;5.15;;;;;;;-1.02;53.37;95509.31;4960034;28;20204;-70
2023/03/05 05:05:05;;;;;;;11.57;5.93;;;;;;;-0.95;52.71;95507.97;4960752;28;20770;-70
2023/03/05 05:07:31;;;;;;;15.02;6.70;;;;;;;-0.63;51.89;95495.31;4959679;28;20104;-70
2023/03/05 05:09:57;;;;;;;12.57;6.63;;;;;;;-0.88;53.64;95500.53;4960691;28;20615;-70
2023/03/05 05:12:22;;;;;;;13.20;6.00;;;;;;;-1.26;54.39;95497.03;4960897;28;20613;-70
2023/03/05 05:14:48;;;;;;;10.63;6.28;;;;;;;-1.44;55.00;95501.75;4959972;28;20112;-70
2023/03/05 05:17:13;;;;;;;12.13;6.57;;;;;;;-1.26;54.21;95506.63;4960198;28;20103;-70
2023/03/05 05:19:38;;;;;;;12.18;6.32;;;;;;;-1.11;54.53;95499.53;4960966;28;20528;-70
2023/03/05 05:22:04;;;;;;;14.25;5.68;;;;;;;-1.69;55.68;95493.00;4959331;28;20208;-71
2023/03/05 05:24:29;;;;;;;15.52;7.82;;;;;;;-1.47;55.50;95494.13;4960747;28;20083;-70
2023/03/05 05:26:55;;;;;;;12.20;5.90;;;;;;;-1.83;56.27;95490.50;4960239;28;20115;-70
2023/03/05 05:29:22;;;;;;;14.00;5.78;;;;;;;-1.94;57.55;95497.25;4958452;28;20078;-70
2023/03/05 05:31:47;;;;;;;11.90;6.65;;;;;;;-1.89;56.98;95486.53;4959857;28;20083;-70
2023/03/05 05:34:12;;;;;;;11.57;6.43;;;;;;;-1.85;56.28;95495.81;4971167;28;20124;-70
2023/03/05 05:36:41;;;;;;;9.88;4.57;;;;;;;-2.55;58.35;95500.38;4960342;28;20133;-70
2023/03/05 05:39:06;;;;;;;13.88;6.20;;;;;;;-2.70;58.80;95503.03;4958712;28;20116;-70
2023/03/05 05:41:31;;;;;;;12.23;6.47;;;;;;;-2.44;58.47;95504.88;4960111;28;23954;-70
2023/03/05 05:43:57;;;;;;;15.05;7.13;;;;;;;-2.55;58.70;95503.81;4960117;28;20080;-70
2023/03/05 05:46:23;;;;;;;13.77;5.85;;;;;;;-2.71;58.36;95508.34;4959875;28;20111;-70
2023/03/05 05:48:49;;;;;;;15.00;7.82;;;;;;;-3.01;59.65;95505.81;4958786;28;20078;-70
2023/03/05 05:51:19;;;;;;;12.32;6.15;;;;;;;-2.91;59.01;95502.63;4958306;28;20110;-70
2023/03/05 05:53:44;;;;;;;13.05;7.15;;;;;;;-2.60;58.41;95497.22;4960358;28;20599;-70
2023/03/05 05:56:10;;;;;;;10.35;6.47;;;;;;;-2.67;58.89;95502.00;4959359;28;20175;-70
2023/03/05 05:58:36;;;;;;;14.63;7.45;;;;;;;-2.48;58.28;95501.63;4957623;28;20599;-70
2023/03/05 06:01:01;;;;;;;15.32;8.70;;;;;;;-2.51;58.75;95494.84;4959974;28;20459;-70
2023/03/05 06:03:27;;;;;;;15.40;8.00;;;;;;;-2.37;57.86;95500.94;4955778;28;20110;-70
2023/03/05 06:05:52;;;;;;;15.68;7.45;;;;;;;-2.53;58.46;95501.94;4958678;28;20121;-70
2023/03/05 06:08:18;;;;;;;17.65;7.35;;;;;;;-2.35;58.49;95500.84;4959942;28;20099;-70
2023/03/05 06:10:43;;;;;;;11.48;5.85;;;;;;;-2.32;58.30;95505.84;4956992;28;20133;-70
2023/03/05 06:13:10;;;;;;;10.48;5.85;;;;;;;-2.54;57.55;95505.47;4960109;28;20090;-70
2023/03/05 06:15:35;;;;;;;8.73;4.85;;;;;;;-2.85;59.09;95504.81;4956640;28;20770;-70
2023/03/05 06:18:01;;;;;;;9.50;5.45;;;;;;;-2.90;59.77;95505.13;4959424;28;20105;-70
2023/03/05 06:20:27;;;;;;;11.88;5.45;;;;;;;-2.43;58.14;95506.56;4959272;28;20152;-70
2023/03/05 06:22:52;;;;;;;8.90;4.68;;;;;;;-3.05;60.18;95506.09;4958016;28;20613;-70
2023/03/05 06:25:18;;;;;;;7.13;4.75;;;;;;;-2.71;59.61;95511.78;4958630;28;20087;-70
2023/03/05 06:27:43;;;;;;;9.70;5.05;;;;;;;-2.47;58.94;95505.09;4959539;28;20102;-70
2023/03/05 06:30:12;;;;;;;12.00;6.70;;;;;;;-2.31;58.34;95503.13;4958691;28;20111;-70
2023/03/05 06:32:37;;;;;;;12.02;5.72;;;;;;;-2.28;58.21;95505.56;4959331;28;20125;-70
2023/03/05 06:35:06;;;;;;;10.60;5.68;;;;;;;-2.42;57.84;95508.22;4958807;28;20098;-70
2023/03/05 06:37:32;;;;;;;13.00;5.63;;;;;;;-2.29;57.34;95505.66;4959351;28;20100;-70
2023/03/05 06:39:58;;;;;;;10.73;6.25;;;;;;;-2.08;57.11;95508.63;4959479;28;20606;-70
2023/03/05 06:42:23;;;;;;;12.43;6.45;;;;;;;-2.16;57.32;95500.47;4958152;28;20614;-70
2023/03/05 06:44:48;;;;;;;11.18;5.70;;;;;;;-1.78;55.62;95497.06;4959361;28;20081;-70
2023/03/05 06:47:14;;;;;;;15.82;6.60;;;;;;;-1.56;54.84;95495.59;4958205;28;20113;-70
2023/03/05 06:49:41;;;;;;;12.43;5.53;;;;;;;-1.42;55.00;95492.06;4957981;28;20488;-70
2023/03/05 06:52:09;;;;;;;11.43;5.25;;;;;;;-1.72;55.15;95491.41;4957320;28;20100;-71
2023/03/05 06:54:34;;;;;;;10.05;4.78;;;;;;;-1.68;55.86;95494.66;4959008;28;20500;-70
2023/03/05 06:56:59;;;;;;;10.18;5.50;;;;;;;-1.44;55.25;95487.84;4958510;28;20165;-70
2023/03/05 06:59:25;;;;;;;12.68;6.60;;;;;;;-1.33;55.14;95493.19;4959080;28;20616;-70
2023/03/05 07:01:50;;;;;;;10.50;5.53;;;;;;;-1.38;54.76;95490.06;4958785;28;20110;-71
2023/03/05 07:04:16;;;;;;;14.20;7.28;;;;;;;-1.01;53.86;95479.66;4959244;28;20078;-71
2023/03/05 07:06:41;;;;;;;18.25;7.43;;;;;;;-1.05;53.83;95486.00;4958485;28;20194;-70
2023/03/05 07:09:07;;;;;;;12.35;7.07;;;;;;;-0.97;53.82;95483.75;4957586;28;20080;-71
2023/03/05 07:11:33;;;;;;;13.90;6.78;;;;;;;-1.23;53.82;95481.16;4958180;28;20074;-70
2023/03/05 07:13:58;;;;;;;15.52;7.78;;;;;;;-1.31;54.48;95475.63;4957758;28;20158;-70
2023/03/05 07:16:28;;;;;;;18.85;8.90;;;;;;;-1.19;54.63;95476.53;4959150;28;20089;-71
2023/03/05 07:18:53;;;;;;;15.52;7.95;;;;;;;-1.24;53.86;95473.41;4957583;28;20599;-71
2023/03/05 07:21:26;;;;;;;15.20;8.10;;;;;;;-0.92;53.03;95482.56;4958282;28;20097;-70
2023/03/05 07:23:53;;;;;;;22.52;9.13;;;;;;;-0.85;53.23;95483.78;4958219;28;20127;-70
2023/03/05 07:26:18;;;;;;;14.18;7.50;;;;;;;-0.87;53.19;95483.91;4956074;28;20650;-70
2023/03/05 07:28:43;;;;;;;13.32;6.43;;;;;;;-1.00;52.56;95480.47;4956665;28;20091;-71
2023/03/05 07:31:19;;;;;;;9.70;6.00;;;;;;;-1.48;53.74;95488.09;4957050;28;20474;-70
2023/03/05 07:33:46;;;;;;;10.55;6.22;;;;;;;-1.73;54.94;95488.94;4955959;28;20146;-70
2023/03/05 07:36:16;;;;;;;11.77;5.95;;;;;;;-1.68;54.80;95480.78;4958483;28;20565;-70
2023/03/05 07:38:42;;;;;;;10.45;6.57;;;;;;;-2.16;55.77;95488.28;4958209;28;20165;-70
2023/03/05 07:41:09;;;;;;;11.13;5.90;;;;;;;-1.86;56.31;95478.50;4958023;28;20365;-70
2023/03/05 07:43:35;;;;;;;10.90;5.82;;;;;;;-2.51;56.69;95478.38;4960422;28;20112;-70
2023/03/05 07:46:05;;;;;;;9.00;4.05;;;;;;;-2.49;57.51;95479.09;4962361;28;20105;-70
2023/03/05 07:48:30;;;;;;;5.55;3.65;;;;;;;-2.54;57.83;95492.44;4962310;28;20098;-70
2023/03/05 07:51:06;;;;;;;12.27;5.50;;;;;;;-2.89;57.75;95485.09;4962039;28;20106;-70
2023/03/05 07:53:31;;;;;;;8.00;4.28;;;;;;;-2.53;57.59;95488.06;4962200;28;20102;-70
2023/03/05 07:55:57;;;;;;;8.18;4.13;;;;;;;-2.58;57.68;95480.53;4962055;28;20571;-71
2023/03/05 07:58:22;;;;;;;8.02;4.53;;;;;;;-2.73;58.70;95478.91;4960997;28;20471;-70
2023/03/05 08:00:48;;;;;;;7.25;4.13;;;;;;;-2.43;57.26;95467.44;4961890;28;20083;-70
2023/03/05 08:03:13;;;;;;;8.55;4.40;;;;;;;-2.12;56.37;95470.63;4961434;28;20704;-70
2023/03/05 08:05:39;;;;;;;5.68;3.92;;;;;;;-1.66;55.59;95468.47;4960254;28;20159;-70
2023/03/05 08:08:05;;;;;;;7.22;3.47;;;;;;;-1.44;54.51;95474.78;4962017;28;20472;-70
2023/03/05 08:10:30;;;;;;;6.55;3.33;;;;;;;-1.88;54.63;95462.09;4960422;28;20640;-70
2023/03/05 08:12:56;;;;;;;7.05;3.60;;;;;;;-1.72;54.06;95467.91;4961929;28;20088;-70
2023/03/05 08:15:21;;;;;;;6.35;3.03;;;;;;;-1.67;55.12;95461.56;4961275;28;20095;-70
2023/03/05 08:17:46;;;;;;;4.53;2.50;;;;;;;-1.51;53.66;95456.97;4961402;28;20166;-70
2023/03/05 08:20:12;;;;;;;4.93;3.13;;;;;;;-1.26;54.09;95455.22;4961564;28;20080;-70
2023/03/05 08:22:37;;;;;;;5.40;2.90;;;;;;;-1.96;55.40;95456.56;4961383;28;20126;-71
2023/03/05 08:25:03;;;;;;;5.28;2.50;;;;;;;-1.54;54.24;95461.53;4961564;28;20091;-70
2023/03/05 08:27:29;;;;;;;3.30;2.40;;;;;;;-1.89;55.47;95447.38;4958682;28;20121;-70
2023/03/05 08:29:54;;;;;;;3.33;1.92;;;;;;;-1.91;55.21;95449.25;4961503;28;20110;-70
2023/03/05 08:32:20;;;;;;;2.47;1.92;;;;;;;-2.13;55.86;95450.69;4961822;28;20113;-71
2023/03/05 08:34:45;;;;;;;4.38;2.58;;;;;;;-1.77;55.65;95448.28;4961119;28;20101;-70
2023/03/05 08:37:10;;;;;;;2.45;1.90;;;;;;;-2.39;56.89;95446.28;4960170;28;20144;-70
2023/03/05 08:39:36;;;;;;;4.80;2.42;;;;;;;-1.78;55.65;95439.66;4960591;28;20195;-70
2023/03/05 08:42:02;;;;;;;2.85;2.55;;;;;;;-2.22;56.47;95441.72;4961146;28;20107;-70
2023/03/05 08:44:28;;;;;;;10.30;2.38;;;;;;;-2.73;57.91;95438.06;4961543;28;20407;-70
2023/03/05 08:46:53;;;;;;;5.70;2.30;;;;;;;-2.27;56.70;95439.41;4960991;28;20364;-70
2023/03/05 08:49:18;;;;;;;3.55;2.10;;;;;;;-2.08;55.73;95419.09;4960795;28;20089;-71
2023/03/05 08:51:44;;;;;;;5.45;2.40;;;;;;;-2.23;57.13;95424.41;4959676;28;20089;-70
2023/03/05 08:54:09;;;;;;;2.92;2.00;;;;;;;-2.04;57.06;95423.97;4959866;28;20172;-70
2023/03/05 08:56:35;;;;;;;2.78;2.28;;;;;;;-1.22;53.37;95420.09;4960816;28;20090;-71
2023/03/05 08:59:00;;;;;;;3.15;2.00;;;;;;;-1.17;52.84;95421.56;4960049;28;20136;-70
2023/03/05 09:01:26;;;;;;;3.38;2.50;;;;;;;-0.97;51.46;95423.63;4960386;28;20549;-70
2023/03/05 09:03:52;;;;;;;3.15;2.42;;;;;;;-0.67;51.11;95408.44;4959588;28;20083;-70
2023/03/05 09:06:17;;;;;;;4.20;2.55;;;;;;;-0.79;50.51;95414.53;4960852;28;20108;-71
2023/03/05 09:08:43;;;;;;;5.40;3.00;;;;;;;-1.44;53.04;95422.56;4960914;28;20106;-70
2023/03/05 09:11:08;;;;;;;5.70;2.67;;;;;;;-1.10;53.05;95420.19;4960038;28;20112;-71
2023/03/05 09:13:34;;;;;;;4.32;2.35;;;;;;;-1.03;52.86;95418.78;4960031;28;20108;-70
2023/03/05 09:16:01;;;;;;;2.38;2.15;;;;;;;-1.16;52.39;95407.56;4960911;28;20080;-70
2023/03/05 09:18:27;;;;;;;5.25;2.40;;;;;;;-1.09;51.86;95414.00;4959493;28;20124;-71
2023/03/05 09:20:52;;;;;;;3.70;1.88;;;;;;;-1.40;51.37;95403.13;4960686;28;20169;-70
2023/03/05 09:23:18;;;;;;;5.05;2.33;;;;;;;-1.76;53.72;95413.44;4956417;28;20124;-71
2023/03/05 09:25:43;;;;;;;7.15;2.95;;;;;;;-0.77;51.29;95394.34;4958874;28;20179;-71
2023/03/05 09:28:08;;;;;;;3.58;1.85;;;;;;;-1.13;52.43;95407.31;4958525;28;20880;-70
2023/03/05 09:30:35;;;;;;;6.97;2.17;;;;;;;-0.62;50.95;95400.22;4968813;28;20110;-70
2023/03/05 09:33:02;;;;;;;3.17;1.85;;;;;;;-0.72;49.58;95407.91;4959478;28;20460;-70
2023/03/05 09:35:28;;;;;;;5.47;2.03;;;;;;;-1.52;53.13;95405.66;4959254;28;20128;-70
2023/03/05 09:37:53;;;;;;;6.88;2.17;;;;;;;-1.82;53.71;95401.66;4958464;28;20200;-70
2023/03/05 09:40:19;;;;;;;5.97;1.98;;;;;;;-1.44;53.72;95404.28;4956407;28;20116;-71
2023/03/05 09:43:15;;;;;;;3.33;1.73;;;;;;;-1.16;53.06;95397.13;4958508;28;20103;-70
2023/03/05 09:46:15;;;;;;;5.22;2.40;;;;;;;-1.08;52.87;95398.22;4954611;28;20097;-70
2023/03/05 09:48:47;;;;;;;2.83;1.95;;;;;;;-0.56;51.11;95381.47;4959260;28;20184;-70
2023/03/05 09:51:17;;;;;;;4.90;2.00;;;;;;;-0.46;50.28;95387.69;4957407;28;20093;-70
2023/03/05 09:53:58;;;;;;;;;;;;;;;-0.07;50.11;95389.19;4941791;28;20567;-70
2023/03/05 09:56:33;;;;;;;4.88;1.67;;;;;;;-0.29;49.65;95380.34;4959147;28;19962;-70
2023/03/05 09:59:16;;;;;;;2.90;2.13;;;;;;;-0.24;49.39;95390.50;4942284;28;20102;-70
2023/03/05 10:01:41;;;;;;;2.38;1.88;;;;;;;-0.36;48.59;95384.38;4943944;28;20386;-70
2023/03/05 10:04:14;;;;;;;1.67;1.52;;;;;;;-0.65;48.68;95382.16;4958650;28;20147;-70
2023/03/05 10:06:58;;;;;;;2.03;1.80;;;;;;;-1.12;50.01;95396.78;4956959;28;20723;-70
2023/03/05 10:09:23;;;;;;;5.38;2.28;;;;;;;-1.60;52.57;95387.94;4951509;28;20087;-70
2023/03/05 10:11:56;;;;;;;3.53;2.03;;;;;;;-2.15;54.07;95389.97;4959621;28;20083;-70
2023/03/05 10:14:35;;;;;;;4.90;2.83;;;;;;;-1.71;52.49;95390.44;4954274;28;20109;-70
2023/03/05 10:17:19;;;;;;;8.95;2.70;;;;;;;-1.63;52.24;95384.72;4966026;28;20074;-70
2023/03/05 10:20:01;;;;;;;7.68;3.05;;;;;;;-1.17;51.43;95384.97;4959030;28;20554;-70
2023/03/05 10:22:32;;;;;;;5.88;3.13;;;;;;;-0.44;49.87;95377.94;4952995;28;20545;-70
2023/03/05 10:25:13;;;;;;;4.97;2.60;;;;;;;-0.62;49.48;95381.91;4942424;28;20173;-70
2023/03/05 10:27:54;;;;;;;7.30;3.42;;;;;;;-0.82;49.86;95368.53;4957380;28;20142;-70
2023/03/05 10:30:38;;;;;;;6.53;3.33;;;;;;;-0.93;49.68;95361.50;4941139;28;20108;-70
2023/03/05 10:33:25;;;;;;;4.15;2.83;;;;;;;-0.93;50.01;95358.03;4959485;28;20576;-70
2023/03/05 10:36:18;;;;;;;5.90;2.38;;;;;;;-0.39;49.34;95358.44;4959311;28;20161;-70
2023/03/05 10:39:18;;;;;;;6.10;4.03;;;;;;;-0.40;49.62;95347.16;4956427;28;20223;-70
2023/03/05 10:41:51;;;;;;;6.28;2.97;;;;;;;-0.72;50.85;95351.22;4957536;28;20107;-71
2023/03/05 10:44:43;;;;;;;6.40;3.63;;;;;;;-1.00;51.46;95355.84;4958991;28;20078;-70
2023/03/05 10:47:39;;;;;;;6.68;3.22;;;;;;;-1.18;50.83;95347.59;4958297;28;20511;-70
2023/03/05 10:50:23;;;;;;;5.20;3.22;;;;;;;-0.22;49.05;95342.31;4956551;28;20118;-70
2023/03/05 10:53:21;;;;;;;6.10;2.83;;;;;;;-0.50;49.33;95341.78;4958349;28;20094;-70
2023/03/05 10:55:49;;;;;;;2.75;1.98;;;;;;;-1.25;51.29;95335.91;4928976;28;20111;-70
2023/03/05 10:58:15;;;;;;;5.40;3.03;;;;;;;-0.77;52.11;95342.06;4958895;28;20150;-70
2023/03/05 11:01:03;;;;;;;7.63;3.15;;;;;;;-1.14;51.87;95332.50;4958730;28;20092;-70
2023/03/05 11:04:13;;;;;;;5.28;2.50;;;;;;;-1.68;53.17;95345.84;4957657;28;20115;-70
2023/03/05 11:06:44;;;;;;;6.05;2.60;;;;;;;-1.87;53.69;95335.84;4939075;28;20153;-70
2023/03/05 11:09:30;;;;;;;6.10;2.58;;;;;;;-2.15;54.23;95333.41;4941420;28;20156;-70
2023/03/05 11:12:20;;;;;;;4.07;3.00;;;;;;;-1.70;54.15;95320.81;4958156;28;20080;-70
2023/03/05 11:15:12;;;;;;;7.97;2.92;;;;;;;-1.54;54.63;95325.75;4955735;28;20127;-70
2023/03/05 11:17:46;;;;;;;6.25;3.38;;;;;;;-1.95;55.55;95325.13;4959308;28;20557;-69
2023/03/05 11:20:30;;;;;;;6.57;3.17;;;;;;;-1.47;54.24;95327.84;4960465;28;20078;-70
2023/03/05 11:23:10;;;;;;;5.03;3.30;;;;;;;-1.92;54.46;95325.75;4960575;28;20193;-70
2023/03/05 11:26:05;;;;;;;6.57;2.65;;;;;;;-1.92;56.59;95317.09;4962493;28;20108;-70
2023/03/05 11:28:33;;;;;;;6.80;2.85;;;;;;;-1.81;56.85;95314.56;4955903;28;20104;-70
2023/03/05 11:31:06;;;;;;;4.30;2.70;;;;;;;-1.27;53.28;95306.44;4944569;28;20619;-70
2023/03/05 11:33:32;;;;;;;4.18;2.47;;;;;;;-1.15;53.29;95304.72;4962272;28;20208;-70
2023/03/05 11:36:20;;;;;;;3.85;2.53;;;;;;;-1.70;53.84;95305.97;4959885;28;20492;-70
2023/03/05 11:39:10;;;;;;;5.80;2.80;;;;;;;-2.07;55.48;95296.34;4973787;28;20409;-70